Terminal Aerodrome Forecast
Issued by NWS

Home | Current Version | Previous Version | Text Only | Print | Product List | Glossary On
Versions: 1 2 3 4 5 6 7 8 9 10 11 12 13 14 15 16 17 18 19 20 21 22
000
FTUS43 KDMX 221722
TAFMCW
TAF
KMCW 221722Z 2218/2318 24010KT P6SM BKN130
     FM222130 30010KT P6SM BKN110
     FM230500 34013KT P6SM BKN015
     FM231400 04015KT P6SM BKN010=

USA.gov is the U.S. government's official web portal to all federal, state and local government web resources and services.